Latest Weather Observations for Charlton

IDV60801

Issued at 12:42 pm EDT Friday 4 December 2020 (issued every 10 minutes, with the page automatically refreshed every 10 minutes)

About weather observations | Map of weather stations | Latest weather observations for VIC | Other Formats
Station Details ID: 080128 Name: CHARLTON Lat: -36.28 Lon: 143.33 Height: 131.7 m
Data from the previous 72 hours. | See also: Recent months at Charlton
Date/Time
EDT
Temp
°C
App
Temp
°C
Dew
Point
°C
Rel
Hum
%
Delta-T
°C
Wind Press
QNH
hPa
Press
MSL
hPa
Rain since
9am
mm
Dir  Spd
km/h
Gust
km/h
Spd
kts
Gust
kts
04/12:30pm 24.8 20.7 2.3 23 10.8 SW 13 28 7 15 1016.5 1016.1 0.0
04/12:00pm 24.1 20.0 2.3 24 10.4 SSW 13 20 7 11 1016.7 1016.3 0.0
04/11:30am 23.0 18.7 3.0 27 9.7 SW 15 24 8 13 1017.0 1016.6 0.0
04/11:00am 22.1 17.7 2.8 28 9.2 SSW 15 26 8 14 1017.2 1016.8 0.0
04/10:30am 21.3 17.1 1.6 27 9.1 SSW 13 24 7 13 1017.5 1017.1 0.0
04/10:00am 20.1 16.4 4.2 35 7.7 SW 13 22 7 12 1017.7 1017.3 0.0
04/09:30am 18.7 15.3 4.1 38 7.0 S 11 19 6 10 1017.6 1017.2 0.0
04/09:00am 17.4 14.3 5.7 46 5.7 SSW 11 15 6 8 1017.7 1017.3 0.0
04/08:30am 15.5 12.8 5.4 51 4.8 SW 9 20 5 11 1017.6 1017.2 0.0
04/08:00am 13.9 11.4 6.7 62 3.5 SW 9 15 5 8 1017.3 1016.9 0.0
04/07:30am 12.2 9.7 6.5 68 2.7 WSW 9 13 5 7 1017.1 1016.7 0.0
04/07:00am 10.6 8.4 6.4 75 2.0 WSW 7 13 4 7 1016.7 1016.3 0.0
04/06:30am 9.0 8.2 6.4 84 1.2 CALM 0 0 0 0 1016.0 1015.5 0.0
04/06:00am 8.8 8.0 6.3 84 1.2 CALM 0 0 0 0 1015.7 1015.2 0.0
04/05:30am 9.3 8.5 6.4 82 1.4 CALM 0 0 0 0 1015.5 1015.0 0.0
04/05:00am 10.0 9.2 6.7 80 1.6 CALM 0 0 0 0 1015.4 1014.9 0.0
04/04:30am 10.5 9.7 6.6 77 1.8 CALM 0 0 0 0 1015.3 1014.8 0.0
04/04:00am 11.3 9.5 7.0 75 2.1 SW 6 9 3 5 1015.4 1014.9 0.0
04/03:30am 11.7 9.4 7.4 75 2.1 SW 9 17 5 9 1015.5 1015.0 0.0
04/03:00am 12.5 10.7 8.0 74 2.2 SW 7 11 4 6 1015.6 1015.1 0.0
04/02:30am 13.1 11.3 8.0 71 2.5 SW 7 13 4 7 1015.5 1015.0 0.0
04/02:00am 14.1 11.7 8.5 69 2.8 SSW 11 15 6 8 1015.7 1015.2 0.0
04/01:30am 14.9 12.6 7.5 61 3.7 SW 9 15 5 8 1015.9 1015.4 0.0
04/01:00am 16.2 13.3 4.6 46 5.5 SW 9 15 5 8 1016.0 1015.5 0.0
04/12:30am 17.7 14.2 3.6 39 6.6 SW 11 22 6 12 1016.0 1015.5 0.0
04/12:00am 18.6 14.7 1.2 31 7.8 SW 11 20 6 11 1016.1 1015.6 0.0
 
Date/Time
EDT
Temp
°C
App
Temp
°C
Dew
Point
°C
Rel
Hum
%
Delta-T
°C
Wind Press
QNH
hPa
Press
MSL
hPa
Rain since
9am
mm
Dir  Spd
km/h
Gust
km/h
Spd
kts
Gust
kts
03/11:30pm 19.7 16.0 -0.3 26 8.8 WSW 9 19 5 10 1016.1 1015.6 0.0
03/11:00pm 18.9 15.7 1.0 30 8.0 WSW 7 9 4 5 1016.0 1015.5 0.0
03/10:30pm 18.1 16.3 1.2 32 7.6 CALM 0 0 0 0 1015.9 1015.4 0.0
03/10:00pm 18.5 15.6 1.5 32 7.7 WSW 6 7 3 4 1016.0 1015.5 0.0
03/09:30pm 19.9 18.1 1.4 29 8.5 CALM 0 0 0 0 1015.8 1015.3 0.0
03/09:00pm 22.1 20.8 4.2 31 8.8 CALM 0 0 0 0 1015.7 1015.2 0.0
03/08:30pm 24.4 21.3 0.0 20 11.2 WSW 6 9 3 5 1015.6 1015.1 0.0
03/08:00pm 26.5 23.2 0.3 18 12.3 W 7 11 4 6 1015.5 1015.0 0.0
03/07:30pm 28.1 24.3 -0.9 15 13.5 W 9 15 5 8 1015.5 1015.0 0.0
03/07:00pm 28.1 23.8 -1.9 14 13.7 WNW 11 19 6 10 1015.4 1014.9 0.0
03/06:30pm 28.9 24.4 -0.3 15 13.8 W 13 19 7 10 1015.5 1015.0 0.0
03/06:00pm 28.9 24.0 -0.3 15 13.8 WSW 15 24 8 13 1015.8 1015.3 0.0
03/05:30pm 28.7 24.6 -0.5 15 13.8 WSW 11 19 6 10 1016.1 1015.6 0.0
03/05:00pm 28.1 23.5 -0.9 15 13.5 WNW 13 28 7 15 1016.6 1016.2 0.0
03/04:30pm 28.5 23.6 -0.6 15 13.7 WNW 15 24 8 13 1017.2 1016.8 0.0
03/04:00pm 28.3 23.5 0.1 16 13.4 WNW 15 30 8 16 1017.7 1017.3 0.0
03/03:30pm 27.1 23.9 0.8 18 12.5 WNW 7 15 4 8 1018.1 1017.7 0.0
03/03:00pm 27.2 23.2 0.8 18 12.6 W 11 22 6 12 1018.5 1018.0 0.0
03/02:30pm 26.0 21.5 2.0 21 11.6 W 15 24 8 13 1019.0 1018.5 0.0
03/02:00pm 26.3 22.4 3.5 23 11.3 W 13 28 7 15 1019.5 1019.0 0.0
03/01:30pm 24.7 20.5 1.6 22 11.0 WNW 13 22 7 12 1020.0 1019.5 0.0
03/01:00pm 24.1 20.1 2.9 25 10.3 WNW 13 20 7 11 1020.3 1019.8 0.0
03/12:30pm 23.2 20.2 4.2 29 9.4 W 9 13 5 7 1020.7 1020.2 0.0
03/12:00pm 22.7 19.3 3.8 29 9.2 NNW 11 17 6 9 1021.1 1020.6 0.0
03/11:30am 21.0 17.9 3.7 32 8.3 NNE 9 17 5 9 1021.5 1021.0 0.0
03/11:00am 20.2 17.2 3.9 34 7.8 NE 9 17 5 9 1022.0 1021.5 0.0
03/10:30am 19.3 16.0 4.6 38 7.1 NE 11 17 6 9 1022.3 1021.8 0.0
03/10:00am 18.3 15.0 4.8 41 6.5 NE 11 15 6 8 1022.6 1022.1 0.0
03/09:30am 17.6 14.4 5.2 44 6.0 ENE 11 17 6 9 1022.9 1022.5 0.0
03/09:00am 16.4 13.4 6.2 51 5.0 E 11 15 6 8 1023.0 1022.6 0.0
03/08:30am 14.5 12.0 6.6 59 3.9 E 9 13 5 7 1023.0 1022.6 0.0
03/08:00am 12.7 10.2 6.5 66 3.0 ESE 9 13 5 7 1022.6 1022.1 0.0
03/07:30am 11.2 8.7 6.7 74 2.1 SE 9 11 5 6 1022.5 1022.0 0.0
03/07:00am 10.0 7.8 6.2 77 1.8 SE 7 9 4 5 1022.5 1022.0 0.0
03/06:30am 8.8 6.5 5.9 82 1.3 ESE 7 9 4 5 1022.1 1021.6 0.0
03/06:00am 8.0 5.8 5.5 84 1.1 SSE 6 7 3 4 1022.2 1021.7 0.0
03/05:30am 8.4 5.7 5.7 83 1.2 SSE 9 11 5 6 1021.6 1021.1 0.0
03/05:00am 8.4 5.7 5.5 82 1.3 SSE 9 11 5 6 1021.2 1020.7 0.0
03/04:30am 8.5 6.1 5.3 80 1.4 SSE 7 13 4 7 1020.8 1020.3 0.0
03/04:00am 8.8 6.5 4.8 76 1.8 SSE 6 9 3 5 1020.9 1020.4 0.0
03/03:30am 9.2 6.3 4.8 74 2.0 SE 9 11 5 6 1021.1 1020.6 0.0
03/03:00am 9.8 7.3 5.0 72 2.2 SE 7 9 4 5 1021.5 1021.0 0.0
03/02:30am 10.4 8.0 5.2 70 2.4 SSE 7 11 4 6 1021.8 1021.3 0.0
03/02:00am 11.0 8.2 5.3 68 2.6 SSE 9 13 5 7 1021.9 1021.4 0.0
03/01:30am 11.8 9.0 5.2 64 3.1 SSE 9 15 5 8 1022.0 1021.5 0.0
03/01:00am 12.2 9.3 4.9 61 3.4 SSE 9 11 5 6 1022.4 1021.9 0.0
03/12:30am 13.1 9.9 5.0 58 3.8 SSE 11 19 6 10 1022.7 1022.2 0.0
03/12:00am 13.5 11.0 4.6 55 4.1 S 7 11 4 6 1023.2 1022.8 0.0
 
Date/Time
EDT
Temp
°C
App
Temp
°C
Dew
Point
°C
Rel
Hum
%
Delta-T
°C
Wind Press
QNH
hPa
Press
MSL
hPa
Rain since
9am
mm
Dir  Spd
km/h
Gust
km/h
Spd
kts
Gust
kts
02/11:30pm 14.0 11.4 4.3 52 4.5 S 7 15 4 8 1023.2 1022.8 0.0
02/11:00pm 14.3 11.7 4.3 51 4.6 S 7 11 4 6 1023.0 1022.6 0.0
02/10:30pm 15.4 12.0 4.2 47 5.2 SSE 11 15 6 8 1023.0 1022.6 0.0
02/10:00pm 15.8 12.8 4.2 46 5.4 SSE 9 15 5 8 1022.9 1022.5 0.0
02/09:30pm 17.3 14.3 3.9 41 6.3 S 9 15 5 8 1022.7 1022.2 0.0
02/09:00pm 17.2 14.5 2.4 37 6.7 SSW 6 9 3 5 1022.1 1021.6 0.0
02/08:30pm 19.2 17.2 2.1 32 7.9 SSE 2 7 1 4 1021.9 1021.4 0.0
02/08:00pm 21.0 17.5 1.3 27 9.0 SSE 9 15 5 8 1021.7 1021.2 0.0
02/07:30pm 22.4 18.8 0.9 24 9.9 S 9 15 5 8 1021.5 1021.0 0.0
02/07:00pm 23.2 19.6 0.9 23 10.3 SSW 9 17 5 9 1021.5 1021.0 0.0
02/06:30pm 23.3 19.8 1.0 23 10.4 SSW 9 15 5 8 1021.4 1020.9 0.0
02/06:00pm 24.2 20.3 1.2 22 10.8 SW 11 22 6 12 1021.3 1020.8 0.0
02/05:30pm 23.3 19.7 0.4 22 10.5 S 9 17 5 9 1021.4 1020.9 0.0
02/05:00pm 23.6 19.9 0.0 21 10.8 SSW 9 15 5 8 1021.5 1021.0 0.0
02/04:30pm 22.8 18.7 0.0 22 10.4 WSW 11 17 6 9 1021.6 1021.1 0.0
02/04:00pm 22.0 18.3 -0.1 23 9.9 S 9 19 5 10 1021.7 1021.2 0.0
02/03:30pm 22.4 18.4 0.3 23 10.1 W 11 17 6 9 1022.0 1021.5 0.0
02/03:00pm 22.3 18.7 0.8 24 9.9 S 9 20 5 11 1022.4 1021.9 0.0
02/02:30pm 21.6 18.5 1.3 26 9.4 WSW 7 15 4 8 1022.8 1022.3 0.0
02/02:00pm 21.3 17.9 1.6 27 9.1 SSW 9 17 5 9 1023.1 1022.7 0.0
02/01:30pm 20.6 16.3 1.0 27 8.9 SSW 13 20 7 11 1023.2 1022.8 0.0
02/01:00pm 19.3 15.3 0.4 28 8.4 SSW 11 19 6 10 1023.5 1023.1 0.0
02/12:30pm 19.3 15.5 1.8 31 8.0 SW 11 19 6 10 1023.6 1023.2 0.0
02/12:00pm 18.0 13.8 1.9 34 7.3 SW 13 22 7 12 1023.9 1023.5 0.0
02/11:30am 17.3 13.5 1.7 35 7.0 SSE 11 22 6 12 1023.9 1023.5 0.0
02/11:00am 17.6 13.2 2.8 37 6.8 S 15 22 8 12 1024.0 1023.6 0.0
02/10:30am 16.4 12.8 2.8 40 6.2 SSW 11 20 6 11 1023.9 1023.5 0.0
02/10:00am 16.2 12.8 3.9 44 5.7 SSW 11 17 6 9 1023.9 1023.5 0.0
02/09:30am 15.1 11.3 3.9 47 5.2 SSW 13 20 7 11 1024.0 1023.6 0.0
02/09:00am 14.3 11.6 5.4 55 4.2 SSW 9 15 5 8 1023.9 1023.5 3.0
02/08:30am 13.0 10.0 6.1 63 3.3 SW 11 15 6 8 1023.3 1022.9 3.0
02/08:00am 11.7 9.5 6.4 70 2.5 WSW 7 13 4 7 1023.0 1022.6 3.0
02/07:30am 9.9 7.3 5.9 76 1.9 WSW 9 13 5 7 1022.3 1021.8 3.0
02/07:00am 8.7 6.3 5.4 80 1.5 SW 7 11 4 6 1021.7 1021.2 3.0
02/06:30am 7.2 5.2 4.5 83 1.2 S 4 6 2 3 1021.4 1020.9 3.0
02/06:00am 7.6 4.7 4.7 82 1.3 WNW 9 11 5 6 1021.0 1020.5 3.0
02/05:30am 7.9 5.0 4.7 80 1.4 WNW 9 13 5 7 1020.5 1020.0 3.0
02/05:00am 7.9 5.0 4.5 79 1.5 W 9 13 5 7 1020.1 1019.6 3.0
02/04:30am 8.5 5.4 3.8 72 2.0 WNW 9 13 5 7 1020.0 1019.5 3.0
02/04:00am 8.9 5.9 3.9 71 2.2 W 9 15 5 8 1019.6 1019.1 3.0
02/03:30am 9.4 6.0 3.8 68 2.5 W 11 17 6 9 1019.3 1018.8 3.0
02/03:00am 9.8 6.7 3.5 65 2.8 W 9 15 5 8 1019.2 1018.7 3.0
02/02:30am 10.4 6.9 3.4 62 3.1 WSW 11 17 6 9 1019.1 1018.6 3.0
02/02:00am 10.2 7.0 3.0 61 3.1 WNW 9 13 5 7 1019.1 1018.6 3.0
02/01:30am 10.9 7.6 2.5 56 3.6 WSW 9 17 5 9 1019.1 1018.6 3.0
02/01:00am 11.7 8.0 2.5 53 4.0 WSW 11 20 6 11 1019.2 1018.7 3.0
02/12:30am 12.4 7.9 2.3 50 4.4 WSW 15 24 8 13 1018.7 1018.2 3.0
02/12:00am 12.7 8.2 2.0 48 4.6 WSW 15 24 8 13 1018.5 1018.0 3.0
 
Date/Time
EDT
Temp
°C
App
Temp
°C
Dew
Point
°C
Rel
Hum
%
Delta-T
°C
Wind Press
QNH
hPa
Press
MSL
hPa
Rain since
9am
mm
Dir  Spd
km/h
Gust
km/h
Spd
kts
Gust
kts
01/11:30pm 13.1 9.2 1.1 44 5.1 WSW 11 19 6 10 1018.4 1017.9 3.0
01/11:00pm 13.8 8.3 0.5 40 5.6 WSW 19 30 10 16 1018.1 1017.7 3.0
01/10:30pm 14.4 9.2 0.3 38 6.0 WSW 17 32 9 17 1017.8 1017.4 3.0
01/10:00pm 14.8 10.4 0.6 38 6.1 WSW 13 20 7 11 1017.2 1016.8 3.0
01/09:30pm 15.8 10.2 0.0 34 6.8 WSW 19 35 10 19 1016.4 1016.0 3.0
01/09:00pm 16.5 10.6 1.4 36 6.7 WSW 22 37 12 20 1015.8 1015.3 3.0
01/08:30pm 17.4 11.4 1.0 33 7.3 W 22 43 12 23 1015.1 1014.6 3.0
01/08:03pm 18.4 11.1 0.1 29 8.0 WSW 28 48 15 26 1014.4 1013.9 3.0
01/08:00pm 18.5 11.6 0.2 29 8.1 WSW 26 48 14 26 1014.3 1013.8 3.0
01/07:30pm 19.8 12.3 1.3 29 8.4 WSW 30 52 16 28 1013.5 1013.0 3.0
01/07:03pm 20.7 13.2 1.1 27 9.0 WSW 30 48 16 26 1012.8 1012.3 3.0
01/07:00pm 20.9 13.6 2.2 29 8.8 W 30 46 16 25 1012.6 1012.1 3.0
01/06:30pm 21.7 13.9 1.9 27 9.3 WSW 32 56 17 30 1011.7 1011.2 3.0
01/06:06pm 22.5 14.9 3.1 28 9.3 WSW 32 50 17 27 1011.3 1010.8 3.0
01/06:00pm 22.4 14.6 3.0 28 9.3 WSW 33 50 18 27 1011.3 1010.8 3.0
01/05:30pm 23.4 16.5 4.4 29 9.4 W 30 54 16 29 1010.7 1010.2 3.0
01/05:03pm 23.8 15.9 4.2 28 9.7 W 35 56 19 30 1010.2 1009.8 3.0
01/05:00pm 23.9 16.2 5.3 30 9.4 W 35 52 19 28 1010.3 1009.9 3.0
01/04:30pm 23.1 16.2 6.4 34 8.6 W 32 57 17 31 1010.0 1009.6 3.0
01/04:00pm 22.9 15.9 8.6 40 7.7 W 35 54 19 29 1010.0 1009.6 3.0
01/03:30pm 23.5 17.2 9.1 40 7.8 W 32 54 17 29 1009.5 1009.0 3.0
01/03:00pm 24.2 18.2 10.1 41 7.8 W 32 56 17 30 1009.1 1008.6 3.0
01/02:56pm 24.4 19.3 10.7 42 7.7 W 28 52 15 28 1009.1 1008.6 3.0
01/02:30pm 23.8 19.7 11.5 46 7.0 W 24 43 13 23 1009.0 1008.5 3.0
01/02:03pm 23.9 19.3 12.2 48 6.7 W 28 54 15 29 1008.6 1008.1 3.0
01/02:00pm 23.9 20.1 13.7 53 6.0 W 26 44 14 24 1008.8 1008.3 3.0
01/01:40pm 21.8 18.1 14.9 65 4.1 WSW 28 50 15 27 1008.2 1007.7 3.0
01/01:30pm 21.5 18.6 16.2 72 3.2 WSW 26 43 14 23 1008.5 1008.0 3.0
01/01:00pm 21.4 20.2 17.6 79 2.4 W 20 35 11 19 1007.6 1007.1 3.0

Other formats

Comma delimited format used in spreadsheet applications
http://www.bom.gov.au/fwo/IDV60801/IDV60801.94839.axf

JavaScript Object Notation format (JSON) in row-major order
http://www.bom.gov.au/fwo/IDV60801/IDV60801.94839.json

Data quality

Most of these data are generated automatically and are frequently updated. Quality checks on data are not normally performed. It is possible for incorrect values to appear. Refer to information at About Latest Weather Observations and please check the disclaimer before using these data.